sensor_id;sensor_type;location;lat;lon;timestamp;temperature;humidity
612;DHT22;293;53.888;11.464;2022-10-14T00:00:25;14.00;99.90
612;DHT22;293;53.888;11.464;2022-10-14T00:02:52;14.00;99.90
612;DHT22;293;53.888;11.464;2022-10-14T00:05:18;14.00;99.90
612;DHT22;293;53.888;11.464;2022-10-14T00:07:45;14.00;99.90
612;DHT22;293;53.888;11.464;2022-10-14T00:10:12;14.00;99.90
612;DHT22;293;53.888;11.464;2022-10-14T00:12:39;14.00;99.90
612;DHT22;293;53.888;11.464;2022-10-14T00:15:08;14.00;99.90
612;DHT22;293;53.888;11.464;2022-10-14T00:17:35;13.90;99.90
612;DHT22;293;53.888;11.464;2022-10-14T00:20:02;13.90;99.90
612;DHT22;293;53.888;11.464;2022-10-14T00:22:29;14.00;99.90
612;DHT22;293;53.888;11.464;2022-10-14T00:24:56;14.00;99.90
612;DHT22;293;53.888;11.464;2022-10-14T00:27:23;14.00;99.90
612;DHT22;293;53.888;11.464;2022-10-14T00:29:50;14.00;99.90
612;DHT22;293;53.888;11.464;2022-10-14T00:32:18;13.90;99.90
612;DHT22;293;53.888;11.464;2022-10-14T00:34:45;14.00;99.90
612;DHT22;293;53.888;11.464;2022-10-14T00:37:12;14.00;99.90
612;DHT22;293;53.888;11.464;2022-10-14T00:39:39;14.00;99.90
612;DHT22;293;53.888;11.464;2022-10-14T00:42:10;14.00;99.90
612;DHT22;293;53.888;11.464;2022-10-14T00:44:58;14.00;99.90
612;DHT22;293;53.888;11.464;2022-10-14T00:47:26;14.00;99.90
612;DHT22;293;53.888;11.464;2022-10-14T00:49:54;14.00;99.90
612;DHT22;293;53.888;11.464;2022-10-14T00:52:22;14.00;99.90
612;DHT22;293;53.888;11.464;2022-10-14T00:54:53;14.00;99.90
612;DHT22;293;53.888;11.464;2022-10-14T00:57:21;14.00;99.90
612;DHT22;293;53.888;11.464;2022-10-14T00:59:49;14.00;99.90
612;DHT22;293;53.888;11.464;2022-10-14T01:02:16;14.00;99.90
612;DHT22;293;53.888;11.464;2022-10-14T01:04:44;14.00;99.90
612;DHT22;293;53.888;11.464;2022-10-14T01:07:20;14.00;99.90
612;DHT22;293;53.888;11.464;2022-10-14T01:09:52;14.00;99.90
612;DHT22;293;53.888;11.464;2022-10-14T01:12:29;14.00;99.90
612;DHT22;293;53.888;11.464;2022-10-14T01:15:02;14.00;99.90
612;DHT22;293;53.888;11.464;2022-10-14T01:17:37;14.00;99.90
612;DHT22;293;53.888;11.464;2022-10-14T01:20:26;14.00;99.90
612;DHT22;293;53.888;11.464;2022-10-14T01:23:11;14.00;99.90
612;DHT22;293;53.888;11.464;2022-10-14T01:25:51;14.00;99.90
612;DHT22;293;53.888;11.464;2022-10-14T01:28:27;14.00;99.90
612;DHT22;293;53.888;11.464;2022-10-14T01:31:01;14.00;99.90
612;DHT22;293;53.888;11.464;2022-10-14T01:33:34;14.00;99.90
612;DHT22;293;53.888;11.464;2022-10-14T01:36:05;14.10;99.90
612;DHT22;293;53.888;11.464;2022-10-14T01:38:35;14.00;99.90
612;DHT22;293;53.888;11.464;2022-10-14T01:41:06;14.00;99.90
612;DHT22;293;53.888;11.464;2022-10-14T01:43:35;14.00;99.90
612;DHT22;293;53.888;11.464;2022-10-14T01:46:06;14.00;99.90
612;DHT22;293;53.888;11.464;2022-10-14T01:48:38;14.00;99.90
612;DHT22;293;53.888;11.464;2022-10-14T01:51:11;14.00;99.90
612;DHT22;293;53.888;11.464;2022-10-14T01:53:41;14.00;99.90
612;DHT22;293;53.888;11.464;2022-10-14T01:56:11;14.00;99.90
612;DHT22;293;53.888;11.464;2022-10-14T01:58:39;14.00;99.90
612;DHT22;293;53.888;11.464;2022-10-14T02:01:08;14.00;99.90
612;DHT22;293;53.888;11.464;2022-10-14T02:03:39;13.90;99.90
612;DHT22;293;53.888;11.464;2022-10-14T02:06:11;13.90;99.90
612;DHT22;293;53.888;11.464;2022-10-14T02:08:51;13.90;99.90
612;DHT22;293;53.888;11.464;2022-10-14T02:11:21;13.90;99.90
612;DHT22;293;53.888;11.464;2022-10-14T02:13:59;14.00;99.90
612;DHT22;293;53.888;11.464;2022-10-14T02:16:36;14.00;99.90
612;DHT22;293;53.888;11.464;2022-10-14T02:19:09;13.90;99.90
612;DHT22;293;53.888;11.464;2022-10-14T02:21:42;13.90;99.90
612;DHT22;293;53.888;11.464;2022-10-14T02:24:13;13.90;99.90
612;DHT22;293;53.888;11.464;2022-10-14T02:26:42;13.90;99.90
612;DHT22;293;53.888;11.464;2022-10-14T02:29:10;13.90;99.90
612;DHT22;293;53.888;11.464;2022-10-14T02:31:40;13.90;99.90
612;DHT22;293;53.888;11.464;2022-10-14T02:34:11;13.90;99.90
612;DHT22;293;53.888;11.464;2022-10-14T02:36:39;13.90;99.90
612;DHT22;293;53.888;11.464;2022-10-14T02:39:10;14.00;99.90
612;DHT22;293;53.888;11.464;2022-10-14T02:41:37;14.00;99.90
612;DHT22;293;53.888;11.464;2022-10-14T02:44:05;14.00;99.90
612;DHT22;293;53.888;11.464;2022-10-14T02:46:33;14.00;99.90
612;DHT22;293;53.888;11.464;2022-10-14T02:49:01;14.00;99.90
612;DHT22;293;53.888;11.464;2022-10-14T02:51:28;14.00;99.90
612;DHT22;293;53.888;11.464;2022-10-14T02:53:55;14.00;99.90
612;DHT22;293;53.888;11.464;2022-10-14T02:56:23;14.00;99.90
612;DHT22;293;53.888;11.464;2022-10-14T02:58:49;14.00;99.90
612;DHT22;293;53.888;11.464;2022-10-14T03:01:16;13.90;99.90
612;DHT22;293;53.888;11.464;2022-10-14T03:03:43;13.90;99.90
612;DHT22;293;53.888;11.464;2022-10-14T03:06:11;13.90;99.90
612;DHT22;293;53.888;11.464;2022-10-14T03:08:38;14.00;99.90
612;DHT22;293;53.888;11.464;2022-10-14T03:11:05;14.00;99.90
612;DHT22;293;53.888;11.464;2022-10-14T03:13:32;13.90;99.90
612;DHT22;293;53.888;11.464;2022-10-14T03:15:59;13.90;99.90
612;DHT22;293;53.888;11.464;2022-10-14T03:18:26;13.90;99.90
612;DHT22;293;53.888;11.464;2022-10-14T03:20:53;13.90;99.90
612;DHT22;293;53.888;11.464;2022-10-14T03:23:21;13.90;99.90
612;DHT22;293;53.888;11.464;2022-10-14T03:25:47;13.90;99.90
612;DHT22;293;53.888;11.464;2022-10-14T03:28:14;13.90;99.90
612;DHT22;293;53.888;11.464;2022-10-14T03:30:41;13.90;99.90
612;DHT22;293;53.888;11.464;2022-10-14T03:33:08;13.90;99.90
612;DHT22;293;53.888;11.464;2022-10-14T03:35:35;13.90;99.90
612;DHT22;293;53.888;11.464;2022-10-14T03:38:01;13.90;99.90
612;DHT22;293;53.888;11.464;2022-10-14T03:40:31;13.90;99.90
612;DHT22;293;53.888;11.464;2022-10-14T03:42:58;13.90;99.90
612;DHT22;293;53.888;11.464;2022-10-14T03:45:25;13.90;99.90
612;DHT22;293;53.888;11.464;2022-10-14T03:47:53;13.90;99.90
612;DHT22;293;53.888;11.464;2022-10-14T03:50:20;13.90;99.90
612;DHT22;293;53.888;11.464;2022-10-14T03:52:46;13.90;99.90
612;DHT22;293;53.888;11.464;2022-10-14T03:55:13;13.90;99.90
612;DHT22;293;53.888;11.464;2022-10-14T03:57:42;13.90;99.90
612;DHT22;293;53.888;11.464;2022-10-14T04:00:23;13.90;99.90
612;DHT22;293;53.888;11.464;2022-10-14T04:02:49;13.90;99.90
612;DHT22;293;53.888;11.464;2022-10-14T04:05:16;13.90;99.90
612;DHT22;293;53.888;11.464;2022-10-14T04:07:43;13.90;99.90
612;DHT22;293;53.888;11.464;2022-10-14T04:10:10;13.90;99.90
612;DHT22;293;53.888;11.464;2022-10-14T04:12:36;13.90;99.90
612;DHT22;293;53.888;11.464;2022-10-14T04:15:07;14.00;99.90
612;DHT22;293;53.888;11.464;2022-10-14T04:17:34;14.00;99.90
612;DHT22;293;53.888;11.464;2022-10-14T04:20:01;14.00;99.90
612;DHT22;293;53.888;11.464;2022-10-14T04:22:28;14.00;99.90
612;DHT22;293;53.888;11.464;2022-10-14T04:24:54;13.90;99.90
612;DHT22;293;53.888;11.464;2022-10-14T04:27:21;14.00;99.90
612;DHT22;293;53.888;11.464;2022-10-14T04:29:49;14.00;99.90
612;DHT22;293;53.888;11.464;2022-10-14T04:32:18;14.00;99.90
612;DHT22;293;53.888;11.464;2022-10-14T04:34:45;14.00;99.90
612;DHT22;293;53.888;11.464;2022-10-14T04:37:12;14.00;99.90
612;DHT22;293;53.888;11.464;2022-10-14T04:39:39;14.00;99.90
612;DHT22;293;53.888;11.464;2022-10-14T04:42:06;14.00;99.90
612;DHT22;293;53.888;11.464;2022-10-14T04:44:32;14.10;99.90
612;DHT22;293;53.888;11.464;2022-10-14T04:46:59;14.10;99.90
612;DHT22;293;53.888;11.464;2022-10-14T04:49:27;14.10;99.90
612;DHT22;293;53.888;11.464;2022-10-14T04:51:54;14.10;99.90
612;DHT22;293;53.888;11.464;2022-10-14T04:54:21;14.10;99.90
612;DHT22;293;53.888;11.464;2022-10-14T04:56:48;14.10;99.90
612;DHT22;293;53.888;11.464;2022-10-14T04:59:15;14.10;99.90
612;DHT22;293;53.888;11.464;2022-10-14T05:01:42;14.10;99.90
612;DHT22;293;53.888;11.464;2022-10-14T05:04:08;14.10;99.90
612;DHT22;293;53.888;11.464;2022-10-14T05:06:36;14.10;99.90
612;DHT22;293;53.888;11.464;2022-10-14T05:09:04;14.10;99.90
612;DHT22;293;53.888;11.464;2022-10-14T05:11:31;14.20;99.90
612;DHT22;293;53.888;11.464;2022-10-14T05:13:58;14.20;99.90
612;DHT22;293;53.888;11.464;2022-10-14T05:16:25;14.10;99.90
612;DHT22;293;53.888;11.464;2022-10-14T05:18:52;14.10;99.90
612;DHT22;293;53.888;11.464;2022-10-14T05:21:19;14.10;99.90
612;DHT22;293;53.888;11.464;2022-10-14T05:23:47;14.10;99.90
612;DHT22;293;53.888;11.464;2022-10-14T05:26:14;14.10;99.90
612;DHT22;293;53.888;11.464;2022-10-14T05:28:41;14.10;99.90
612;DHT22;293;53.888;11.464;2022-10-14T05:31:08;14.20;99.90
612;DHT22;293;53.888;11.464;2022-10-14T05:33:35;14.20;99.90
612;DHT22;293;53.888;11.464;2022-10-14T05:36:02;14.10;99.90
612;DHT22;293;53.888;11.464;2022-10-14T05:38:30;14.20;99.90
612;DHT22;293;53.888;11.464;2022-10-14T05:40:58;14.20;99.90
612;DHT22;293;53.888;11.464;2022-10-14T05:43:25;14.20;99.90
612;DHT22;293;53.888;11.464;2022-10-14T05:45:52;14.20;99.90
612;DHT22;293;53.888;11.464;2022-10-14T05:48:19;14.20;99.90
612;DHT22;293;53.888;11.464;2022-10-14T05:50:45;14.20;99.90
612;DHT22;293;53.888;11.464;2022-10-14T05:53:12;14.20;99.90
612;DHT22;293;53.888;11.464;2022-10-14T05:55:39;14.20;99.90
612;DHT22;293;53.888;11.464;2022-10-14T05:58:08;14.20;99.90
612;DHT22;293;53.888;11.464;2022-10-14T06:00:35;14.20;99.90
612;DHT22;293;53.888;11.464;2022-10-14T06:03:01;14.20;99.90
612;DHT22;293;53.888;11.464;2022-10-14T06:05:28;14.20;99.90
612;DHT22;293;53.888;11.464;2022-10-14T06:07:55;14.30;99.90
612;DHT22;293;53.888;11.464;2022-10-14T06:10:22;14.30;99.90
612;DHT22;293;53.888;11.464;2022-10-14T06:12:49;14.30;99.90
612;DHT22;293;53.888;11.464;2022-10-14T06:15:17;14.30;99.90
612;DHT22;293;53.888;11.464;2022-10-14T06:17:44;14.30;99.90
612;DHT22;293;53.888;11.464;2022-10-14T06:20:11;14.30;99.90
612;DHT22;293;53.888;11.464;2022-10-14T06:22:38;14.30;99.90
612;DHT22;293;53.888;11.464;2022-10-14T06:25:05;14.30;99.90
612;DHT22;293;53.888;11.464;2022-10-14T06:27:32;14.30;99.90
612;DHT22;293;53.888;11.464;2022-10-14T06:29:59;14.40;99.90
612;DHT22;293;53.888;11.464;2022-10-14T06:32:27;14.40;99.90
612;DHT22;293;53.888;11.464;2022-10-14T06:34:54;14.40;99.90
612;DHT22;293;53.888;11.464;2022-10-14T06:37:21;14.40;99.90
612;DHT22;293;53.888;11.464;2022-10-14T06:39:48;14.40;99.90
612;DHT22;293;53.888;11.464;2022-10-14T06:42:15;14.50;99.90
612;DHT22;293;53.888;11.464;2022-10-14T06:44:41;14.50;99.90
612;DHT22;293;53.888;11.464;2022-10-14T06:47:08;14.50;99.90
612;DHT22;293;53.888;11.464;2022-10-14T06:49:36;14.60;99.90
612;DHT22;293;53.888;11.464;2022-10-14T06:52:03;14.60;99.90
612;DHT22;293;53.888;11.464;2022-10-14T06:54:30;14.60;99.90
612;DHT22;293;53.888;11.464;2022-10-14T06:56:57;14.60;99.90
612;DHT22;293;53.888;11.464;2022-10-14T06:59:24;14.70;99.90
612;DHT22;293;53.888;11.464;2022-10-14T07:01:52;14.70;99.90
612;DHT22;293;53.888;11.464;2022-10-14T07:04:19;14.80;99.90
612;DHT22;293;53.888;11.464;2022-10-14T07:06:47;14.80;99.90
612;DHT22;293;53.888;11.464;2022-10-14T07:09:14;14.90;99.90
612;DHT22;293;53.888;11.464;2022-10-14T07:11:41;15.00;99.90
612;DHT22;293;53.888;11.464;2022-10-14T07:14:08;15.10;99.90
612;DHT22;293;53.888;11.464;2022-10-14T07:16:35;15.10;99.90
612;DHT22;293;53.888;11.464;2022-10-14T07:19:02;15.10;99.90
612;DHT22;293;53.888;11.464;2022-10-14T07:21:28;15.10;99.90
612;DHT22;293;53.888;11.464;2022-10-14T07:23:57;15.10;99.90
612;DHT22;293;53.888;11.464;2022-10-14T07:26:24;15.20;99.90
612;DHT22;293;53.888;11.464;2022-10-14T07:28:51;15.20;99.90
612;DHT22;293;53.888;11.464;2022-10-14T07:31:18;15.20;99.90
612;DHT22;293;53.888;11.464;2022-10-14T07:33:44;15.30;99.90
612;DHT22;293;53.888;11.464;2022-10-14T07:36:13;15.30;99.90
612;DHT22;293;53.888;11.464;2022-10-14T07:38:40;15.30;99.90
612;DHT22;293;53.888;11.464;2022-10-14T07:41:13;15.30;99.90
612;DHT22;293;53.888;11.464;2022-10-14T07:43:42;15.40;99.90
612;DHT22;293;53.888;11.464;2022-10-14T07:46:10;15.40;99.90
612;DHT22;293;53.888;11.464;2022-10-14T07:48:37;15.50;99.90
612;DHT22;293;53.888;11.464;2022-10-14T07:51:05;15.50;99.90
612;DHT22;293;53.888;11.464;2022-10-14T07:53:32;15.50;99.90
612;DHT22;293;53.888;11.464;2022-10-14T07:55:59;15.50;99.90
612;DHT22;293;53.888;11.464;2022-10-14T07:58:29;15.50;99.90
612;DHT22;293;53.888;11.464;2022-10-14T08:00:57;15.50;99.90
612;DHT22;293;53.888;11.464;2022-10-14T08:03:24;15.50;99.90
612;DHT22;293;53.888;11.464;2022-10-14T08:05:57;15.60;99.90
612;DHT22;293;53.888;11.464;2022-10-14T08:08:24;15.60;99.90
612;DHT22;293;53.888;11.464;2022-10-14T08:10:59;15.60;99.90
612;DHT22;293;53.888;11.464;2022-10-14T08:13:28;15.60;99.90
612;DHT22;293;53.888;11.464;2022-10-14T08:15:55;15.60;99.90
612;DHT22;293;53.888;11.464;2022-10-14T08:18:22;15.60;99.90
612;DHT22;293;53.888;11.464;2022-10-14T08:20:50;15.60;99.90
612;DHT22;293;53.888;11.464;2022-10-14T08:23:17;15.70;99.90
612;DHT22;293;53.888;11.464;2022-10-14T08:25:45;15.70;99.90
612;DHT22;293;53.888;11.464;2022-10-14T08:28:12;15.70;99.90
612;DHT22;293;53.888;11.464;2022-10-14T08:30:40;15.70;99.90
612;DHT22;293;53.888;11.464;2022-10-14T08:33:07;15.70;99.90
612;DHT22;293;53.888;11.464;2022-10-14T08:35:34;15.70;99.90
612;DHT22;293;53.888;11.464;2022-10-14T08:38:01;15.70;99.90
612;DHT22;293;53.888;11.464;2022-10-14T08:40:29;15.80;99.90
612;DHT22;293;53.888;11.464;2022-10-14T08:43:00;15.80;99.90
612;DHT22;293;53.888;11.464;2022-10-14T08:45:32;15.90;99.90
612;DHT22;293;53.888;11.464;2022-10-14T08:48:08;15.90;99.90
612;DHT22;293;53.888;11.464;2022-10-14T08:50:41;16.00;99.90
612;DHT22;293;53.888;11.464;2022-10-14T08:53:13;16.00;99.90
612;DHT22;293;53.888;11.464;2022-10-14T08:55:45;16.00;99.90
612;DHT22;293;53.888;11.464;2022-10-14T08:58:14;16.00;99.90
612;DHT22;293;53.888;11.464;2022-10-14T09:00:46;16.00;99.90
612;DHT22;293;53.888;11.464;2022-10-14T09:03:20;16.10;99.90
612;DHT22;293;53.888;11.464;2022-10-14T09:05:54;16.10;99.90
612;DHT22;293;53.888;11.464;2022-10-14T09:08:27;16.10;99.90
612;DHT22;293;53.888;11.464;2022-10-14T09:10:56;16.20;99.90
612;DHT22;293;53.888;11.464;2022-10-14T09:13:29;16.20;99.90
612;DHT22;293;53.888;11.464;2022-10-14T09:16:01;16.20;99.90
612;DHT22;293;53.888;11.464;2022-10-14T09:18:34;16.10;99.90
612;DHT22;293;53.888;11.464;2022-10-14T09:21:07;16.20;99.90
612;DHT22;293;53.888;11.464;2022-10-14T09:23:40;16.20;99.90
612;DHT22;293;53.888;11.464;2022-10-14T09:26:11;16.30;99.90
612;DHT22;293;53.888;11.464;2022-10-14T09:28:43;16.40;99.90
612;DHT22;293;53.888;11.464;2022-10-14T09:31:12;16.60;99.90
612;DHT22;293;53.888;11.464;2022-10-14T09:33:41;16.70;99.90
612;DHT22;293;53.888;11.464;2022-10-14T09:36:15;16.90;99.90
612;DHT22;293;53.888;11.464;2022-10-14T09:38:43;17.00;99.90
612;DHT22;293;53.888;11.464;2022-10-14T09:41:11;17.00;99.90
612;DHT22;293;53.888;11.464;2022-10-14T09:44:17;17.10;99.90
612;DHT22;293;53.888;11.464;2022-10-14T09:46:51;17.10;99.90
612;DHT22;293;53.888;11.464;2022-10-14T09:49:28;17.10;99.90
612;DHT22;293;53.888;11.464;2022-10-14T09:51:57;17.10;99.90
612;DHT22;293;53.888;11.464;2022-10-14T09:54:27;17.00;99.90
612;DHT22;293;53.888;11.464;2022-10-14T09:57:03;17.00;99.90
612;DHT22;293;53.888;11.464;2022-10-14T09:59:30;17.00;99.90
612;DHT22;293;53.888;11.464;2022-10-14T10:01:59;17.10;99.90
612;DHT22;293;53.888;11.464;2022-10-14T10:04:34;17.10;99.90
612;DHT22;293;53.888;11.464;2022-10-14T10:07:23;17.10;99.90
612;DHT22;293;53.888;11.464;2022-10-14T10:09:53;17.00;99.90
612;DHT22;293;53.888;11.464;2022-10-14T10:12:28;17.00;99.90
612;DHT22;293;53.888;11.464;2022-10-14T10:14:57;17.00;99.90
612;DHT22;293;53.888;11.464;2022-10-14T10:17:25;17.00;99.90
612;DHT22;293;53.888;11.464;2022-10-14T10:20:11;16.90;99.90
612;DHT22;293;53.888;11.464;2022-10-14T10:22:42;16.90;99.90
612;DHT22;293;53.888;11.464;2022-10-14T10:25:18;16.90;99.90
612;DHT22;293;53.888;11.464;2022-10-14T10:27:50;16.80;99.90
612;DHT22;293;53.888;11.464;2022-10-14T10:30:23;16.90;99.90
612;DHT22;293;53.888;11.464;2022-10-14T10:33:01;16.80;99.90
612;DHT22;293;53.888;11.464;2022-10-14T10:35:41;16.90;99.90
612;DHT22;293;53.888;11.464;2022-10-14T10:38:20;17.00;99.90
612;DHT22;293;53.888;11.464;2022-10-14T10:40:57;17.30;99.90
612;DHT22;293;53.888;11.464;2022-10-14T10:46:32;17.40;99.90
612;DHT22;293;53.888;11.464;2022-10-14T10:49:09;17.40;99.90
612;DHT22;293;53.888;11.464;2022-10-14T10:51:51;17.30;99.90
612;DHT22;293;53.888;11.464;2022-10-14T10:54:28;17.30;99.90
612;DHT22;293;53.888;11.464;2022-10-14T10:57:01;17.30;99.90
612;DHT22;293;53.888;11.464;2022-10-14T10:59:45;17.40;99.90
612;DHT22;293;53.888;11.464;2022-10-14T11:02:40;17.50;99.90
612;DHT22;293;53.888;11.464;2022-10-14T11:05:17;17.60;99.90
612;DHT22;293;53.888;11.464;2022-10-14T11:07:54;17.60;99.90
612;DHT22;293;53.888;11.464;2022-10-14T11:10:46;17.50;99.90
612;DHT22;293;53.888;11.464;2022-10-14T11:13:41;17.40;99.90
612;DHT22;293;53.888;11.464;2022-10-14T11:16:16;17.40;99.90
612;DHT22;293;53.888;11.464;2022-10-14T11:18:48;17.30;99.90
612;DHT22;293;53.888;11.464;2022-10-14T11:21:22;17.30;99.90
612;DHT22;293;53.888;11.464;2022-10-14T11:24:00;17.20;99.90
612;DHT22;293;53.888;11.464;2022-10-14T11:26:57;17.10;99.90
612;DHT22;293;53.888;11.464;2022-10-14T11:29:54;17.10;99.90
612;DHT22;293;53.888;11.464;2022-10-14T11:32:31;17.20;99.90
612;DHT22;293;53.888;11.464;2022-10-14T11:35:12;17.30;99.90
612;DHT22;293;53.888;11.464;2022-10-14T11:37:48;17.40;99.90
612;DHT22;293;53.888;11.464;2022-10-14T11:40:24;17.50;99.90
612;DHT22;293;53.888;11.464;2022-10-14T11:43:06;17.50;99.90
612;DHT22;293;53.888;11.464;2022-10-14T11:45:45;17.70;99.90
612;DHT22;293;53.888;11.464;2022-10-14T11:48:24;17.90;99.90
612;DHT22;293;53.888;11.464;2022-10-14T11:50:56;18.00;99.90
612;DHT22;293;53.888;11.464;2022-10-14T11:56:34;18.20;99.90
612;DHT22;293;53.888;11.464;2022-10-14T11:59:25;18.30;99.90
612;DHT22;293;53.888;11.464;2022-10-14T12:01:59;18.40;99.90
612;DHT22;293;53.888;11.464;2022-10-14T12:04:31;18.50;99.90
612;DHT22;293;53.888;11.464;2022-10-14T12:07:04;18.50;99.90
612;DHT22;293;53.888;11.464;2022-10-14T12:09:37;18.40;99.90
612;DHT22;293;53.888;11.464;2022-10-14T12:12:08;18.40;99.90
612;DHT22;293;53.888;11.464;2022-10-14T12:14:38;18.40;99.90
612;DHT22;293;53.888;11.464;2022-10-14T12:17:15;18.40;99.90
612;DHT22;293;53.888;11.464;2022-10-14T12:19:43;18.50;99.90
612;DHT22;293;53.888;11.464;2022-10-14T12:22:15;18.50;99.90
612;DHT22;293;53.888;11.464;2022-10-14T12:24:47;18.50;99.90
612;DHT22;293;53.888;11.464;2022-10-14T12:27:17;18.40;99.90
612;DHT22;293;53.888;11.464;2022-10-14T12:29:47;18.40;99.90
612;DHT22;293;53.888;11.464;2022-10-14T12:32:20;18.40;99.90
612;DHT22;293;53.888;11.464;2022-10-14T12:34:50;18.30;99.90
612;DHT22;293;53.888;11.464;2022-10-14T12:37:49;18.20;99.90
612;DHT22;293;53.888;11.464;2022-10-14T12:40:31;18.10;99.90
612;DHT22;293;53.888;11.464;2022-10-14T12:48:32;17.80;99.90
612;DHT22;293;53.888;11.464;2022-10-14T12:51:09;17.70;99.90
612;DHT22;293;53.888;11.464;2022-10-14T12:53:38;17.60;99.90
612;DHT22;293;53.888;11.464;2022-10-14T12:56:06;17.60;99.90
612;DHT22;293;53.888;11.464;2022-10-14T12:58:37;17.50;99.90
612;DHT22;293;53.888;11.464;2022-10-14T13:01:14;17.50;99.90
612;DHT22;293;53.888;11.464;2022-10-14T13:03:43;17.40;99.90
612;DHT22;293;53.888;11.464;2022-10-14T13:06:34;17.40;99.90
612;DHT22;293;53.888;11.464;2022-10-14T13:21:29;17.20;99.90
612;DHT22;293;53.888;11.464;2022-10-14T13:23:59;17.10;99.90
612;DHT22;293;53.888;11.464;2022-10-14T13:26:36;17.10;99.90
612;DHT22;293;53.888;11.464;2022-10-14T13:29:14;17.10;99.90
612;DHT22;293;53.888;11.464;2022-10-14T13:31:46;17.10;99.90
612;DHT22;293;53.888;11.464;2022-10-14T13:34:28;17.10;99.90
612;DHT22;293;53.888;11.464;2022-10-14T13:37:15;17.10;99.90
612;DHT22;293;53.888;11.464;2022-10-14T13:39:45;17.10;99.90
612;DHT22;293;53.888;11.464;2022-10-14T13:42:15;17.10;99.90
612;DHT22;293;53.888;11.464;2022-10-14T13:44:45;17.10;99.90
612;DHT22;293;53.888;11.464;2022-10-14T13:47:13;17.10;99.90
612;DHT22;293;53.888;11.464;2022-10-14T13:49:41;17.10;99.90
612;DHT22;293;53.888;11.464;2022-10-14T13:52:16;17.10;99.90
612;DHT22;293;53.888;11.464;2022-10-14T13:54:45;17.20;99.90
612;DHT22;293;53.888;11.464;2022-10-14T13:57:14;17.20;99.90
612;DHT22;293;53.888;11.464;2022-10-14T13:59:42;17.20;99.90
612;DHT22;293;53.888;11.464;2022-10-14T14:02:12;17.30;99.90
612;DHT22;293;53.888;11.464;2022-10-14T14:04:47;17.40;99.90
612;DHT22;293;53.888;11.464;2022-10-14T14:07:18;17.50;99.90
612;DHT22;293;53.888;11.464;2022-10-14T14:09:47;17.50;99.90
612;DHT22;293;53.888;11.464;2022-10-14T14:12:15;17.60;99.90
612;DHT22;293;53.888;11.464;2022-10-14T14:14:43;17.70;99.90
612;DHT22;293;53.888;11.464;2022-10-14T14:17:15;17.70;99.90
612;DHT22;293;53.888;11.464;2022-10-14T14:19:45;17.80;99.90
612;DHT22;293;53.888;11.464;2022-10-14T14:22:16;17.80;99.90
612;DHT22;293;53.888;11.464;2022-10-14T14:24:44;17.90;99.90
612;DHT22;293;53.888;11.464;2022-10-14T14:27:12;17.80;99.90
612;DHT22;293;53.888;11.464;2022-10-14T14:29:41;17.80;99.90
612;DHT22;293;53.888;11.464;2022-10-14T14:32:13;17.70;99.90
612;DHT22;293;53.888;11.464;2022-10-14T14:34:43;17.60;99.90
612;DHT22;293;53.888;11.464;2022-10-14T14:37:16;17.40;99.90
612;DHT22;293;53.888;11.464;2022-10-14T14:39:54;17.20;99.90
612;DHT22;293;53.888;11.464;2022-10-14T14:42:22;17.10;99.90
612;DHT22;293;53.888;11.464;2022-10-14T14:44:50;17.00;99.90
612;DHT22;293;53.888;11.464;2022-10-14T14:47:17;16.90;99.90
612;DHT22;293;53.888;11.464;2022-10-14T14:49:45;16.90;99.90
612;DHT22;293;53.888;11.464;2022-10-14T14:52:13;16.80;99.90
612;DHT22;293;53.888;11.464;2022-10-14T14:54:43;16.70;99.90
612;DHT22;293;53.888;11.464;2022-10-14T14:57:13;16.60;99.90
612;DHT22;293;53.888;11.464;2022-10-14T14:59:49;16.50;99.90
612;DHT22;293;53.888;11.464;2022-10-14T15:02:19;16.40;99.90
612;DHT22;293;53.888;11.464;2022-10-14T15:04:58;16.40;99.90
612;DHT22;293;53.888;11.464;2022-10-14T15:07:26;16.30;99.90
612;DHT22;293;53.888;11.464;2022-10-14T15:09:55;16.20;99.90
612;DHT22;293;53.888;11.464;2022-10-14T15:12:25;16.20;99.90
612;DHT22;293;53.888;11.464;2022-10-14T15:14:53;16.10;99.90
612;DHT22;293;53.888;11.464;2022-10-14T15:17:27;16.10;99.90
612;DHT22;293;53.888;11.464;2022-10-14T15:19:56;16.10;99.90
612;DHT22;293;53.888;11.464;2022-10-14T15:22:33;16.00;99.90
612;DHT22;293;53.888;11.464;2022-10-14T15:27:50;15.80;99.90
612;DHT22;293;53.888;11.464;2022-10-14T15:30:22;15.80;99.90
612;DHT22;293;53.888;11.464;2022-10-14T15:32:53;15.70;99.90
612;DHT22;293;53.888;11.464;2022-10-14T15:35:23;15.70;99.90
612;DHT22;293;53.888;11.464;2022-10-14T15:37:50;15.60;99.90
612;DHT22;293;53.888;11.464;2022-10-14T15:40:19;15.60;99.90
612;DHT22;293;53.888;11.464;2022-10-14T15:42:46;15.50;99.90
612;DHT22;293;53.888;11.464;2022-10-14T15:45:14;15.50;99.90
612;DHT22;293;53.888;11.464;2022-10-14T15:47:41;15.50;99.90
612;DHT22;293;53.888;11.464;2022-10-14T15:50:14;15.50;99.90
612;DHT22;293;53.888;11.464;2022-10-14T15:52:43;15.40;99.90
612;DHT22;293;53.888;11.464;2022-10-14T15:55:15;15.30;99.90
612;DHT22;293;53.888;11.464;2022-10-14T15:57:44;15.40;99.90
612;DHT22;293;53.888;11.464;2022-10-14T16:00:12;15.30;99.90
612;DHT22;293;53.888;11.464;2022-10-14T16:02:40;15.30;99.90
612;DHT22;293;53.888;11.464;2022-10-14T16:05:09;15.20;99.90
612;DHT22;293;53.888;11.464;2022-10-14T16:07:36;15.20;99.90
612;DHT22;293;53.888;11.464;2022-10-14T16:10:06;15.20;99.90
612;DHT22;293;53.888;11.464;2022-10-14T16:12:34;15.20;99.90
612;DHT22;293;53.888;11.464;2022-10-14T16:15:01;15.20;99.90
612;DHT22;293;53.888;11.464;2022-10-14T16:17:28;15.10;99.90
612;DHT22;293;53.888;11.464;2022-10-14T16:19:56;15.10;99.90
612;DHT22;293;53.888;11.464;2022-10-14T16:22:23;15.00;99.90
612;DHT22;293;53.888;11.464;2022-10-14T16:24:50;15.00;99.90
612;DHT22;293;53.888;11.464;2022-10-14T16:27:18;15.00;99.90
612;DHT22;293;53.888;11.464;2022-10-14T16:29:45;14.90;99.90
612;DHT22;293;53.888;11.464;2022-10-14T16:32:11;14.90;99.90
612;DHT22;293;53.888;11.464;2022-10-14T16:34:39;14.90;99.90
612;DHT22;293;53.888;11.464;2022-10-14T16:37:06;14.80;99.90
612;DHT22;293;53.888;11.464;2022-10-14T16:39:33;14.90;99.90
612;DHT22;293;53.888;11.464;2022-10-14T16:42:00;14.80;99.90
612;DHT22;293;53.888;11.464;2022-10-14T16:44:28;14.80;99.90
612;DHT22;293;53.888;11.464;2022-10-14T16:46:57;14.80;99.90
612;DHT22;293;53.888;11.464;2022-10-14T16:49:43;14.90;99.90
612;DHT22;293;53.888;11.464;2022-10-14T16:52:10;14.80;99.90
612;DHT22;293;53.888;11.464;2022-10-14T16:54:37;14.80;99.90
612;DHT22;293;53.888;11.464;2022-10-14T16:57:04;14.80;99.90
612;DHT22;293;53.888;11.464;2022-10-14T16:59:33;14.70;99.90
612;DHT22;293;53.888;11.464;2022-10-14T17:02:01;14.70;99.90
612;DHT22;293;53.888;11.464;2022-10-14T17:04:28;14.70;99.90